Hlavní strana
METAR-TAF:

METAR-TAF

Letiště :

Lappeenranta, Finsko

zeměpisná šířka: 61-02-45N, zeměpisná délka: 028-08-55E, výška: 106 m

Aktuální stav počasí

Zpráva byla vytvořena před 15 minutami, v 19:20 UTC
Jihojihozápadní vítr 4 kt
Teplota 16°C
Vlhkost vzduchu 63%
Tlak 1023 hPa
Viditelnost 10 km a více
Žádná oblačnost pod 1500 m, nevyskytují se cumulonimby.

METAR: EFLP 101920Z AUTO 20004KT CAVOK 16/09 Q1023

Čas: 22:35 (19:35 UTC)

Předpověď počasí

Zpráva byla vytvořena před 7 hodinami a 56 minutami, v 11:39 UTC
Předpověď platná od 10 v 12 UTC do 10 v 15 UTC
Jihozápadní vítr 8 kt s nárazy do 18 kt
Viditelnost 10 km a více
Žádná oblačnost pod 1500 m, nevyskytují se cumulonimby.

TAF: EFLP 101139Z 1012/1015 23008G18KT CAVOK

Stav a předpovědi počasí z více než 4 000 letišť (zprávy METAR a TAF).

Červené a žluté tečky na mapě představují dostupné meteorologické stanice.

Když kurzor umístíte na tečku, zobrazí se název stanice.

Pak kliknutím zobrazíte stav a předpověď počasí.

Chcete-li změnit mapu, kliknutím na zelené tlačítko se znaménkem +mapu přiblížíte, kliknutím na zelené tlačítko se znaménkem – mapu oddálíte a kliknutím na zelené šipky přejdete na sousední mapy.


METAR-TAF: